Terminal Aerodrome Forecast
Issued by NWS Cleveland, OH

Home | Current Version | Previous Version | Graphics & Text | Print | Product List | Glossary Off
Versions: 1 2 3 4 5 6 7 8 9 10 11 12 13 14 15 16 17 18 19 20 21 22 23

000
FTUS41 KCLE 212328
TAFYNG
TAF
KYNG 212328Z 2200/2224 20004KT P6SM OVC100
     FM220300 18005KT 6SM BR VCSH OVC050
     FM220700 16005KT 4SM BR OVC025
      TEMPO 2211/2213 2SM BR BKN010
     FM221500 11005KT P6SM BKN035=

USA.gov is the U.S. government's official web portal to all federal, state and local government web resources and services.